Time;durP1;ratioP1;P1;durP2;ratioP2;P2;SDS_P1;SDS_P2;PMS_P1;PMS_P2;Temp;Humidity;BMP_temperature;BMP_pressure;BME280_temperature;BME280_humidity;BME280_pressure;Samples;Min_cycle;Max_cycle;Signal;HPM_P1;HPM_P2
2022/10/31 00:01:27;;;;;;;7.43;3.38;;;;;;;20.06;56.41;102094.09;5073864;28;20407;-73
2022/10/31 00:03:53;;;;;;;7.43;2.97;;;;;;;20.32;55.58;102102.56;5073573;28;20504;-72
2022/10/31 00:06:19;;;;;;;23.77;4.07;;;;;;;20.14;56.02;102092.81;5079985;28;20040;-73
2022/10/31 00:08:46;;;;;;;9.10;3.35;;;;;;;20.13;56.27;102093.88;5085475;28;20089;-73
2022/10/31 00:11:12;;;;;;;12.05;4.28;;;;;;;20.10;55.85;102097.97;5081205;28;20235;-73
2022/10/31 00:13:38;;;;;;;8.38;3.75;;;;;;;20.05;55.81;102100.63;5081797;28;20418;-72
2022/10/31 00:16:04;;;;;;;9.38;3.50;;;;;;;19.93;55.79;102097.22;5091915;28;20042;-74
2022/10/31 00:18:30;;;;;;;8.57;3.67;;;;;;;19.88;56.08;102102.63;5092868;28;20032;-72
2022/10/31 00:21:00;;;;;;;13.07;5.00;;;;;;;19.83;56.14;102099.84;5093501;28;20032;-72
2022/10/31 00:23:25;;;;;;;11.63;4.32;;;;;;;19.65;56.79;102096.63;5093288;28;20089;-71
2022/10/31 00:25:50;;;;;;;13.18;4.40;;;;;;;19.76;56.40;102101.13;5093212;28;20035;-73
2022/10/31 00:28:16;;;;;;;11.38;4.40;;;;;;;19.76;56.46;102101.13;5093045;28;20028;-73
2022/10/31 00:30:41;;;;;;;10.35;3.95;;;;;;;19.76;56.50;102098.41;5093040;28;20165;-73
2022/10/31 00:33:07;;;;;;;15.63;5.32;;;;;;;19.74;56.08;102101.38;5092182;28;20024;-73
2022/10/31 00:35:32;;;;;;;8.10;4.63;;;;;;;19.71;56.41;102096.44;5092807;28;20036;-72
2022/10/31 00:37:57;;;;;;;13.32;6.20;;;;;;;19.73;56.79;102101.66;5087192;28;20020;-73
2022/10/31 00:40:23;;;;;;;12.15;6.55;;;;;;;19.33;59.30;102098.41;5072763;28;20051;-72
2022/10/31 00:42:48;;;;;;;14.90;7.32;;;;;;;19.66;57.64;102096.38;5072578;28;20040;-73
2022/10/31 00:45:13;;;;;;;13.70;6.82;;;;;;;19.71;57.56;102107.38;5072357;28;20025;-73
2022/10/31 00:47:39;;;;;;;13.57;6.55;;;;;;;19.67;57.53;102103.50;5072398;28;20029;-72
2022/10/31 00:50:05;;;;;;;16.70;7.05;;;;;;;19.73;57.41;102109.84;5072613;28;20045;-71
2022/10/31 00:52:31;;;;;;;10.27;6.07;;;;;;;19.87;57.11;102106.44;5072665;28;20512;-73
2022/10/31 00:54:56;;;;;;;15.25;6.82;;;;;;;19.68;57.33;102105.13;5072617;28;20032;-72
2022/10/31 00:57:21;;;;;;;12.63;7.28;;;;;;;19.73;57.21;102107.94;5072106;28;20500;-73
2022/10/31 00:59:47;;;;;;;12.73;6.35;;;;;;;19.71;57.34;102118.28;5072748;28;20051;-72
2022/10/31 01:02:12;;;;;;;17.73;7.15;;;;;;;19.72;57.31;102113.63;5072997;28;20052;-72
2022/10/31 01:04:38;;;;;;;15.80;7.00;;;;;;;19.71;57.31;102118.28;5071031;28;20039;-73
2022/10/31 01:07:03;;;;;;;13.98;6.82;;;;;;;19.81;57.37;102123.03;5071745;28;20094;-72
2022/10/31 01:09:28;;;;;;;12.38;7.85;;;;;;;19.74;57.32;102120.47;5072296;28;20037;-71
2022/10/31 01:11:54;;;;;;;15.82;7.50;;;;;;;19.67;57.54;102111.69;5072444;28;20032;-72
2022/10/31 01:14:19;;;;;;;20.70;8.10;;;;;;;19.76;57.59;102114.75;5090869;28;20044;-72
2022/10/31 01:16:45;;;;;;;17.05;8.52;;;;;;;19.66;58.00;102123.66;5092431;28;20036;-72
2022/10/31 01:19:10;;;;;;;14.68;8.38;;;;;;;19.66;58.45;102123.66;5091984;28;20035;-73
2022/10/31 01:21:35;;;;;;;12.82;7.93;;;;;;;19.65;57.97;102123.91;5092319;28;20032;-72
2022/10/31 01:24:02;;;;;;;13.20;7.70;;;;;;;19.63;57.91;102129.63;5091997;28;20028;-72
2022/10/31 01:26:33;;;;;;;20.60;8.00;;;;;;;19.61;58.09;102136.41;5092487;28;20036;-72
2022/10/31 01:29:08;;;;;;;20.92;9.18;;;;;;;19.56;57.63;102125.41;5092373;28;20054;-72
2022/10/31 01:31:36;;;;;;;17.80;8.20;;;;;;;19.42;57.53;102122.25;5092404;28;20040;-73
2022/10/31 01:34:02;;;;;;;13.68;7.65;;;;;;;19.35;58.21;102124.34;5092031;28;20035;-72
2022/10/31 01:36:30;;;;;;;16.38;9.20;;;;;;;19.29;58.44;102128.88;5092195;28;20044;-72
2022/10/31 01:38:58;;;;;;;12.73;7.82;;;;;;;19.32;58.05;102121.28;5078205;28;20594;-73
2022/10/31 01:41:27;;;;;;;18.98;8.75;;;;;;;19.36;57.94;102123.25;5072244;28;20040;-74
2022/10/31 01:43:56;;;;;;;23.25;9.50;;;;;;;19.34;57.99;102119.94;5071273;28;20273;-73
2022/10/31 01:46:32;;;;;;;16.98;7.70;;;;;;;19.29;57.83;102117.13;5071702;28;20068;-72
2022/10/31 01:49:01;;;;;;;15.90;7.95;;;;;;;19.20;57.92;102110.47;5071660;28;20040;-73
2022/10/31 01:51:32;;;;;;;12.68;7.80;;;;;;;19.15;57.86;102119.41;5071554;28;20036;-72
2022/10/31 01:54:01;;;;;;;16.35;9.43;;;;;;;19.09;58.43;102123.13;5071377;28;20048;-73
2022/10/31 01:56:27;;;;;;;11.07;7.82;;;;;;;19.08;57.82;102110.59;5072023;28;20028;-71
2022/10/31 01:58:56;;;;;;;17.40;9.13;;;;;;;19.00;57.92;102108.28;5072403;28;20506;-73
2022/10/31 02:01:22;;;;;;;14.48;7.90;;;;;;;18.99;57.77;102106.63;5071929;28;20102;-74
2022/10/31 02:03:48;;;;;;;10.95;6.65;;;;;;;19.03;58.03;102113.22;5071470;28;20604;-73
2022/10/31 02:06:26;;;;;;;14.52;7.28;;;;;;;19.00;58.15;102110.19;5071613;28;20060;-73
2022/10/31 02:08:53;;;;;;;18.38;7.60;;;;;;;19.01;58.00;102112.66;5075060;28;20036;-73
2022/10/31 02:11:19;;;;;;;13.15;8.30;;;;;;;19.00;57.58;102111.00;5090390;28;20399;-73
2022/10/31 02:13:45;;;;;;;13.05;7.20;;;;;;;19.01;57.55;102111.81;5091604;28;20021;-73
2022/10/31 02:16:10;;;;;;;12.27;6.97;;;;;;;19.01;57.78;102103.63;5091189;28;20042;-72
2022/10/31 02:18:35;;;;;;;16.67;7.22;;;;;;;19.02;57.54;102111.59;5091572;28;20060;-73
2022/10/31 02:21:16;;;;;;;17.90;9.02;;;;;;;18.88;58.42;102110.28;5091906;28;20048;-73
2022/10/31 02:23:47;;;;;;;18.23;8.50;;;;;;;18.90;57.53;102107.31;5090610;28;20024;-73
2022/10/31 02:26:41;;;;;;;13.18;8.30;;;;;;;18.81;58.56;102106.09;5092375;28;20075;-73
2022/10/31 02:29:25;;;;;;;12.02;8.18;;;;;;;18.74;58.12;102102.69;5091700;28;20046;-73
2022/10/31 02:32:11;;;;;;;14.27;8.70;;;;;;;18.64;58.17;102106.06;5091797;28;20396;-72
2022/10/31 02:35:03;;;;;;;15.63;8.77;;;;;;;18.61;58.23;102094.84;5090211;28;20036;-73
2022/10/31 02:37:53;;;;;;;16.67;9.25;;;;;;;18.58;58.07;102098.91;5073434;28;20062;-73
2022/10/31 02:40:26;;;;;;;16.70;8.60;;;;;;;18.54;57.96;102103.19;5091592;28;20062;-73
2022/10/31 02:43:04;;;;;;;21.38;9.32;;;;;;;18.39;58.25;102097.47;5091095;28;20051;-72
2022/10/31 02:45:41;;;;;;;17.60;8.38;;;;;;;18.35;58.47;102101.75;5090712;28;20143;-72
2022/10/31 02:48:14;;;;;;;17.13;8.70;;;;;;;18.32;57.57;102096.78;5090862;28;20028;-71
2022/10/31 02:50:45;;;;;;;20.92;8.88;;;;;;;18.35;57.54;102097.13;5090125;28;20040;-71
2022/10/31 02:53:14;;;;;;;14.10;7.80;;;;;;;18.32;57.88;102100.31;5090737;28;20024;-71
2022/10/31 02:55:53;;;;;;;17.63;8.75;;;;;;;18.28;57.69;102109.22;5091747;28;20042;-71
2022/10/31 02:58:22;;;;;;;19.33;9.35;;;;;;;18.24;58.40;102110.78;5094462;28;20035;-72
2022/10/31 03:00:50;;;;;;;17.92;9.32;;;;;;;18.33;58.07;102103.88;5094583;28;20028;-72
2022/10/31 03:03:42;;;;;;;15.63;10.65;;;;;;;18.32;57.74;102111.22;5094035;28;20192;-71
2022/10/31 03:06:20;;;;;;;17.98;10.77;;;;;;;18.25;57.83;102105.13;5086326;28;20618;-72
2022/10/31 03:08:54;;;;;;;17.65;9.55;;;;;;;18.27;58.39;102116.56;5074032;28;20059;-72
2022/10/31 03:11:24;;;;;;;19.50;10.10;;;;;;;18.17;59.12;102115.56;5074637;28;20032;-71
2022/10/31 03:14:06;;;;;;;18.88;10.10;;;;;;;18.22;58.21;102107.50;5073898;28;20100;-71
2022/10/31 03:16:34;;;;;;;18.90;10.02;;;;;;;18.23;58.21;102111.88;5073216;28;20037;-72
2022/10/31 03:19:07;;;;;;;22.55;10.57;;;;;;;18.11;58.02;102114.66;5073710;28;20061;-72
2022/10/31 03:21:43;;;;;;;22.92;11.00;;;;;;;18.15;57.97;102115.81;5072442;28;20036;-71
2022/10/31 03:24:11;;;;;;;21.30;10.68;;;;;;;18.08;58.08;102108.88;5073583;28;20037;-71
2022/10/31 03:26:40;;;;;;;18.42;10.48;;;;;;;18.06;58.02;102114.53;5072396;28;20492;-71
2022/10/31 03:29:08;;;;;;;15.75;10.77;;;;;;;18.07;58.27;102116.19;5074230;28;20070;-71
2022/10/31 03:31:41;;;;;;;18.92;11.95;;;;;;;18.02;58.10;102118.84;5074079;28;20082;-71
2022/10/31 03:34:08;;;;;;;23.67;11.80;;;;;;;17.96;58.12;102117.09;5073510;28;20028;-73
2022/10/31 03:36:36;;;;;;;20.55;11.98;;;;;;;17.92;58.67;102115.09;5086489;28;20117;-73
2022/10/31 03:39:05;;;;;;;22.27;12.07;;;;;;;17.98;58.66;102117.66;5091740;28;20399;-72
2022/10/31 03:41:38;;;;;;;25.98;12.90;;;;;;;17.92;58.58;102110.47;5093638;28;20027;-74
2022/10/31 03:44:10;;;;;;;24.10;12.27;;;;;;;17.90;57.80;102117.22;5094151;28;20043;-73
2022/10/31 03:46:36;;;;;;;17.55;12.60;;;;;;;17.76;58.63;102116.69;5092535;28;20032;-72
2022/10/31 03:49:03;;;;;;;14.90;11.05;;;;;;;17.79;58.25;102120.81;5091963;28;20051;-73
2022/10/31 03:51:49;;;;;;;21.45;12.95;;;;;;;17.79;57.99;102120.81;5093437;28;20085;-72
2022/10/31 03:54:27;;;;;;;27.65;11.27;;;;;;;17.72;57.71;102115.50;5093288;28;20042;-72
2022/10/31 03:56:57;;;;;;;19.25;11.30;;;;;;;17.73;58.24;102114.44;5093350;28;20410;-73
2022/10/31 03:59:29;;;;;;;17.83;11.98;;;;;;;17.68;57.80;102114.34;5093891;28;20407;-72
2022/10/31 04:02:02;;;;;;;17.48;11.57;;;;;;;17.63;58.09;102116.94;5089156;28;20194;-72
2022/10/31 04:04:28;;;;;;;19.70;11.43;;;;;;;17.59;57.57;102118.53;5072687;28;20040;-72
2022/10/31 04:06:58;;;;;;;20.35;12.85;;;;;;;17.54;57.74;102115.69;5072281;28;20052;-72
2022/10/31 04:09:26;;;;;;;22.70;12.60;;;;;;;17.53;58.18;102127.63;5072472;28;20036;-75
2022/10/31 04:11:54;;;;;;;28.90;13.48;;;;;;;17.50;58.05;102128.94;5072854;28;20086;-72
2022/10/31 04:14:21;;;;;;;23.17;11.98;;;;;;;17.47;58.18;102120.41;5073194;28;20066;-73
2022/10/31 04:16:47;;;;;;;22.13;12.25;;;;;;;17.42;58.03;102123.00;5072949;28;20508;-75
2022/10/31 04:19:12;;;;;;;18.13;12.00;;;;;;;17.32;58.52;102125.47;5072450;28;20151;-73
2022/10/31 04:21:38;;;;;;;17.55;11.50;;;;;;;17.31;58.38;102119.25;5072638;28;20060;-72
2022/10/31 04:24:04;;;;;;;29.25;12.05;;;;;;;17.29;58.10;102120.53;5072580;28;20084;-74
2022/10/31 04:26:29;;;;;;;16.05;10.77;;;;;;;17.25;58.14;102124.78;5072706;28;20082;-73
2022/10/31 04:28:54;;;;;;;22.40;12.43;;;;;;;17.19;58.12;102123.88;5072845;28;20033;-72
2022/10/31 04:31:20;;;;;;;14.27;10.68;;;;;;;17.17;58.17;102117.84;5072727;28;20040;-72
2022/10/31 04:33:45;;;;;;;18.70;11.57;;;;;;;17.11;57.76;102118.78;5072545;28;20033;-72
2022/10/31 04:36:11;;;;;;;20.08;11.00;;;;;;;17.08;57.94;102118.44;5082396;28;20395;-73
2022/10/31 04:38:37;;;;;;;19.35;11.68;;;;;;;17.05;57.92;102124.31;5092916;28;20065;-73
2022/10/31 04:41:02;;;;;;;24.85;11.55;;;;;;;17.01;58.05;102121.28;5093155;28;20028;-73
2022/10/31 04:43:27;;;;;;;19.02;11.45;;;;;;;17.04;57.96;102125.41;5092482;28;20039;-73
2022/10/31 04:45:53;;;;;;;19.23;11.00;;;;;;;17.01;57.78;102123.16;5092384;28;20047;-73
2022/10/31 04:48:18;;;;;;;16.42;11.02;;;;;;;16.98;58.08;102129.88;5092374;28;20531;-72
2022/10/31 04:50:44;;;;;;;16.23;11.32;;;;;;;16.97;57.97;102119.25;5091815;28;22609;-75
2022/10/31 04:53:09;;;;;;;13.27;9.75;;;;;;;16.90;58.29;102122.09;5092655;28;20510;-72
2022/10/31 04:55:37;;;;;;;16.65;9.50;;;;;;;16.87;57.74;102119.84;5092418;28;20040;-73
2022/10/31 04:58:03;;;;;;;15.02;10.95;;;;;;;16.87;58.60;102122.56;5090894;28;20036;-72
2022/10/31 05:00:28;;;;;;;16.52;11.20;;;;;;;16.90;58.53;102132.97;5092177;28;20209;-72
2022/10/31 05:02:56;;;;;;;15.77;11.07;;;;;;;16.97;58.71;102122.81;5092197;28;20136;-73
2022/10/31 05:05:24;;;;;;;21.00;12.73;;;;;;;17.04;57.92;102117.25;5092137;28;20081;-73
2022/10/31 05:07:50;;;;;;;15.57;10.70;;;;;;;16.99;58.08;102117.97;5092107;28;20032;-71
2022/10/31 05:10:19;;;;;;;16.13;11.05;;;;;;;16.92;58.08;102117.25;5092161;28;20028;-72
2022/10/31 05:12:58;;;;;;;17.40;10.95;;;;;;;16.85;58.88;102108.38;5090699;28;20028;-73
2022/10/31 05:15:25;;;;;;;18.83;10.30;;;;;;;16.87;58.01;102111.69;5091879;28;20046;-72
2022/10/31 05:17:51;;;;;;;14.13;9.85;;;;;;;16.88;58.22;102116.06;5091870;28;20070;-73
2022/10/31 05:20:19;;;;;;;14.73;10.35;;;;;;;16.81;58.17;102106.38;5091089;28;20040;-72
2022/10/31 05:22:50;;;;;;;15.15;11.05;;;;;;;16.85;58.30;102107.56;5091840;28;20119;-75
2022/10/31 05:25:16;;;;;;;15.48;11.48;;;;;;;16.80;58.53;102104.72;5091829;28;20115;-76
2022/10/31 05:27:44;;;;;;;16.77;11.32;;;;;;;16.88;58.63;102098.94;5092148;28;20032;-73
2022/10/31 05:30:10;;;;;;;13.73;10.93;;;;;;;16.86;58.51;102093.78;5091894;28;20491;-74
2022/10/31 05:32:39;;;;;;;21.77;12.88;;;;;;;16.82;58.28;102102.59;5091537;28;20044;-73
2022/10/31 05:35:09;;;;;;;15.13;11.07;;;;;;;16.81;58.41;102100.94;5087870;28;20029;-77
2022/10/31 05:37:35;;;;;;;15.50;10.77;;;;;;;16.81;58.12;102095.50;5074065;28;20578;-72
2022/10/31 05:40:01;;;;;;;19.80;10.95;;;;;;;16.79;58.12;102097.63;5091448;28;20040;-73
2022/10/31 05:42:27;;;;;;;17.40;11.40;;;;;;;16.80;58.30;102097.41;5091707;28;20401;-72
2022/10/31 05:44:52;;;;;;;20.10;11.90;;;;;;;16.84;58.35;102101.31;5091558;28;20040;-74
2022/10/31 05:47:17;;;;;;;16.88;12.30;;;;;;;16.80;58.93;102108.28;5091916;28;20486;-72
2022/10/31 05:49:43;;;;;;;21.10;12.50;;;;;;;16.88;59.20;102099.78;5090848;28;20081;-74
2022/10/31 05:52:08;;;;;;;17.50;12.80;;;;;;;16.95;58.85;102096.94;5082644;28;20581;-72
2022/10/31 05:54:33;;;;;;;23.02;11.38;;;;;;;16.96;58.67;102098.59;5075644;28;20056;-73
2022/10/31 05:56:59;;;;;;;53.28;12.82;;;;;;;16.95;59.24;102097.78;5077406;28;20028;-73
2022/10/31 05:59:24;;;;;;;44.38;12.60;;;;;;;17.02;58.92;102105.81;5077510;28;20032;-72
2022/10/31 06:01:49;;;;;;;37.28;13.00;;;;;;;16.97;59.22;102103.78;5079801;28;20117;-73
2022/10/31 06:04:15;;;;;;;31.75;12.13;;;;;;;17.01;58.78;102098.69;5094030;28;20127;-72
2022/10/31 06:06:40;;;;;;;51.65;14.27;;;;;;;17.03;59.04;102097.41;5072476;28;20524;-72
2022/10/31 06:09:05;;;;;;;44.65;11.10;;;;;;;16.94;59.00;102092.56;5079972;28;20070;-74
2022/10/31 06:11:31;;;;;;;20.95;10.77;;;;;;;16.96;59.13;102095.88;5090736;28;20028;-71
2022/10/31 06:13:56;;;;;;;13.43;10.20;;;;;;;16.93;58.45;102093.63;5091410;28;20127;-72
2022/10/31 06:16:22;;;;;;;16.80;10.68;;;;;;;16.93;58.72;102096.34;5090941;28;20399;-72
2022/10/31 06:18:47;;;;;;;23.50;10.25;;;;;;;16.87;58.98;102097.28;5090796;28;20064;-71
2022/10/31 06:21:12;;;;;;;17.30;10.60;;;;;;;16.83;58.76;102098.81;5090567;28;20039;-71
2022/10/31 06:23:38;;;;;;;19.63;11.77;;;;;;;16.71;59.36;102104.25;5090825;28;20097;-72
2022/10/31 06:26:03;;;;;;;14.57;10.68;;;;;;;16.74;59.20;102100.25;5091614;28;20044;-74
2022/10/31 06:28:29;;;;;;;15.18;10.57;;;;;;;16.75;59.19;102091.03;5084618;28;20077;-73
2022/10/31 06:30:54;;;;;;;19.42;11.95;;;;;;;16.75;59.67;102088.31;5072643;28;20511;-71
2022/10/31 06:33:19;;;;;;;18.58;11.98;;;;;;;16.83;58.99;102087.97;5077414;28;20043;-72
2022/10/31 06:35:46;;;;;;;22.90;12.32;;;;;;;16.94;58.94;102092.56;5088516;28;20032;-70
2022/10/31 06:38:12;;;;;;;30.85;12.45;;;;;;;16.92;58.80;102094.69;5085572;28;20081;-73
2022/10/31 06:40:37;;;;;;;22.92;12.88;;;;;;;16.65;59.06;102097.88;5075432;28;20032;-73
2022/10/31 06:43:02;;;;;;;28.75;14.27;;;;;;;16.84;58.82;102095.88;5074473;28;20024;-71
2022/10/31 06:45:28;;;;;;;27.52;13.35;;;;;;;16.90;59.05;102105.81;5074184;28;20040;-73
2022/10/31 06:47:54;;;;;;;32.25;12.60;;;;;;;16.98;59.23;102101.91;5074839;28;20029;-73
2022/10/31 06:50:21;;;;;;;21.55;12.70;;;;;;;16.98;58.74;102104.63;5081313;28;20078;-72
2022/10/31 06:52:57;;;;;;;59.17;13.00;;;;;;;16.97;59.55;102111.09;5074314;28;20041;-72
2022/10/31 06:55:24;;;;;;;72.13;11.48;;;;;;;16.99;59.25;102106.25;5074438;28;20036;-73
2022/10/31 06:57:53;;;;;;;52.45;11.55;;;;;;;17.11;59.62;102112.53;5074286;28;20534;-71
2022/10/31 07:00:19;;;;;;;62.33;11.75;;;;;;;16.90;60.91;102118.56;5089584;28;20043;-71
2022/10/31 07:02:56;;;;;;;92.90;12.13;;;;;;;17.02;60.25;102119.38;5082353;28;20041;-72
2022/10/31 07:05:22;;;;;;;47.00;10.48;;;;;;;16.84;60.60;102119.50;5082746;28;20041;-69
2022/10/31 07:07:52;;;;;;;33.22;9.82;;;;;;;17.07;59.81;102119.50;5084428;28;20040;-72
2022/10/31 07:10:17;;;;;;;65.07;11.18;;;;;;;17.04;60.19;102117.25;5084133;28;20063;-71
2022/10/31 07:12:43;;;;;;;46.72;10.80;;;;;;;17.14;59.77;102106.63;5082519;28;20036;-71
2022/10/31 07:15:08;;;;;;;56.50;9.63;;;;;;;17.12;59.30;102106.03;5087677;28;20024;-72
2022/10/31 07:17:35;;;;;;;62.53;11.93;;;;;;;17.00;59.97;102100.59;5078476;28;20032;-71
2022/10/31 07:20:00;;;;;;;77.75;10.07;;;;;;;17.23;59.23;102106.03;5077005;28;20029;-72
2022/10/31 07:22:35;;;;;;;17.60;8.32;;;;;;;17.10;59.24;102114.41;5082066;28;20066;-72
2022/10/31 07:25:01;;;;;;;28.38;10.10;;;;;;;16.97;60.16;102111.94;5082366;28;20031;-71
2022/10/31 07:27:26;;;;;;;15.40;9.38;;;;;;;17.10;59.28;102114.41;5081475;28;20033;-70
2022/10/31 07:29:52;;;;;;;40.33;8.57;;;;;;;16.99;60.21;102112.53;5078056;28;20039;-69
2022/10/31 07:32:17;;;;;;;35.13;9.63;;;;;;;17.17;59.77;102111.56;5078364;28;20028;-70
2022/10/31 07:34:43;;;;;;;26.35;9.30;;;;;;;17.21;59.62;102112.75;5074448;28;20434;-69
2022/10/31 07:37:08;;;;;;;40.28;10.75;;;;;;;17.26;59.66;102113.69;5077829;28;20032;-70
2022/10/31 07:39:33;;;;;;;17.15;9.57;;;;;;;17.24;59.48;102118.53;5075087;28;20556;-68
2022/10/31 07:41:59;;;;;;;23.45;11.25;;;;;;;17.26;59.65;102115.56;5077490;28;20033;-69
2022/10/31 07:44:24;;;;;;;31.25;10.02;;;;;;;17.00;60.89;102113.38;5077964;28;20032;-71
2022/10/31 07:46:50;;;;;;;77.85;9.57;;;;;;;17.02;60.25;102117.47;5078219;28;20036;-71
2022/10/31 07:49:15;;;;;;;34.20;10.43;;;;;;;17.22;59.80;102117.09;5074304;28;20393;-70
2022/10/31 07:51:40;;;;;;;67.80;12.05;;;;;;;17.42;59.99;102112.13;5078176;28;20036;-71
2022/10/31 07:54:06;;;;;;;91.60;13.63;;;;;;;17.40;59.89;102116.97;5076346;28;20191;-72
2022/10/31 07:56:31;;;;;;;73.97;13.85;;;;;;;17.43;59.96;102120.03;5088395;28;20040;-71
2022/10/31 07:58:57;;;;;;;113.45;15.48;;;;;;;17.57;59.93;102125.25;5080927;28;20368;-69
2022/10/31 08:01:22;;;;;;;119.75;15.88;;;;;;;17.45;60.49;102125.25;5072394;28;20051;-70
2022/10/31 08:03:47;;;;;;;58.40;13.32;;;;;;;17.46;59.95;102135.03;5069562;28;20044;-70
2022/10/31 08:06:13;;;;;;;59.38;13.98;;;;;;;17.59;59.99;102128.56;5069480;28;20064;-70
2022/10/31 08:08:38;;;;;;;113.75;15.52;;;;;;;17.16;61.63;102131.66;5067669;28;20048;-69
2022/10/31 08:11:04;;;;;;;130.93;16.02;;;;;;;17.58;60.22;102130.44;5079671;28;20035;-70
2022/10/31 08:13:29;;;;;;;34.58;14.63;;;;;;;17.92;59.53;102125.97;5079259;28;20028;-69
2022/10/31 08:15:55;;;;;;;49.08;16.00;;;;;;;17.84;59.19;102129.91;5076284;28;20029;-70
2022/10/31 08:18:23;;;;;;;35.17;15.70;;;;;;;17.86;59.61;102130.50;5071569;28;20035;-69
2022/10/31 08:20:49;;;;;;;36.83;16.25;;;;;;;17.97;59.15;102134.22;5071673;28;20120;-71
2022/10/31 08:23:15;;;;;;;26.67;17.40;;;;;;;18.11;59.06;102130.13;5070250;28;20033;-70
2022/10/31 08:25:42;;;;;;;37.60;18.73;;;;;;;18.07;58.89;102120.81;5077438;28;20037;-69
2022/10/31 08:28:10;;;;;;;42.63;17.40;;;;;;;17.88;59.78;102136.50;5076375;28;20075;-69
2022/10/31 08:30:36;;;;;;;38.63;18.35;;;;;;;18.19;58.90;102127.03;5069617;28;20134;-70
2022/10/31 08:33:06;;;;;;;25.98;17.20;;;;;;;18.17;59.45;102127.28;5072427;28;20037;-69
2022/10/31 08:35:32;;;;;;;26.35;18.45;;;;;;;18.27;59.11;102129.34;5078211;28;20185;-70
2022/10/31 08:37:58;;;;;;;29.27;19.23;;;;;;;18.39;58.88;102121.94;5077132;28;20054;-69
2022/10/31 08:40:25;;;;;;;32.63;18.88;;;;;;;18.27;59.11;102127.47;5074858;28;20037;-70
2022/10/31 08:43:03;;;;;;;26.35;19.45;;;;;;;18.37;58.76;102129.53;5076526;28;20031;-70
2022/10/31 08:45:30;;;;;;;32.30;20.50;;;;;;;18.24;59.53;102136.09;5077797;28;20041;-70
2022/10/31 08:48:02;;;;;;;32.20;20.75;;;;;;;18.24;59.44;102132.53;5077792;28;20036;-69
2022/10/31 08:50:28;;;;;;;37.47;19.77;;;;;;;17.92;61.49;102136.84;5073387;28;20036;-71
2022/10/31 08:53:00;;;;;;;31.15;20.27;;;;;;;18.45;59.94;102136.50;5073515;28;20027;-68
2022/10/31 08:55:25;;;;;;;30.88;19.08;;;;;;;18.24;60.89;102133.38;5071927;28;20040;-69
2022/10/31 08:57:57;;;;;;;28.10;20.25;;;;;;;18.56;59.50;102132.88;5070023;28;20458;-68
2022/10/31 09:00:23;;;;;;;34.55;18.98;;;;;;;18.94;58.84;102128.34;5072082;28;20064;-67
2022/10/31 09:03:02;;;;;;;29.27;19.50;;;;;;;18.90;59.37;102129.09;5068902;28;20081;-68
2022/10/31 09:05:28;;;;;;;33.58;20.23;;;;;;;19.21;58.88;102125.75;5073416;28;20109;-69
2022/10/31 09:07:57;;;;;;;33.55;21.92;;;;;;;19.42;58.80;102119.50;5078036;28;20067;-69
2022/10/31 09:10:24;;;;;;;34.95;21.95;;;;;;;19.66;59.07;102122.81;5076836;28;20430;-69
2022/10/31 09:12:58;;;;;;;41.78;24.10;;;;;;;20.00;58.33;102116.13;5077044;28;20024;-68
2022/10/31 09:15:24;;;;;;;42.10;24.05;;;;;;;20.08;58.63;102118.41;5077698;28;20033;-70
2022/10/31 09:17:50;;;;;;;38.25;25.20;;;;;;;20.29;58.34;102114.00;5070943;28;20671;-70
2022/10/31 09:20:15;;;;;;;43.67;26.63;;;;;;;20.36;58.91;102112.72;5088838;28;20043;-70
2022/10/31 09:22:41;;;;;;;50.88;28.67;;;;;;;20.55;58.64;102116.72;5087515;28;20384;-70
2022/10/31 09:25:06;;;;;;;47.78;26.73;;;;;;;20.25;59.76;102107.41;5078700;28;20216;-70
2022/10/31 09:27:32;;;;;;;51.35;27.10;;;;;;;20.14;60.03;102104.56;5070997;28;20040;-71
2022/10/31 09:29:57;;;;;;;42.65;26.23;;;;;;;20.02;60.37;102108.50;5074933;28;20033;-70
2022/10/31 09:32:22;;;;;;;45.45;26.30;;;;;;;20.29;59.82;102111.25;5077975;28;20094;-69
2022/10/31 09:34:48;;;;;;;53.78;27.98;;;;;;;19.88;61.00;102110.00;5073593;28;20388;-68
2022/10/31 09:37:13;;;;;;;52.45;28.95;;;;;;;20.85;58.80;102105.19;5088557;28;20310;-70
2022/10/31 09:39:39;;;;;;;48.80;28.02;;;;;;;21.49;57.22;102101.22;5073316;28;20424;-70
2022/10/31 09:42:25;;;;;;;51.33;28.83;;;;;;;21.67;57.09;102100.75;5069327;28;20039;-67
2022/10/31 09:45:20;;;;;;;49.03;26.15;;;;;;;21.74;57.06;102097.75;5068720;28;20060;-70
2022/10/31 09:47:55;;;;;;;52.25;25.52;;;;;;;21.79;57.66;102087.66;5072429;28;20040;-69
2022/10/31 09:50:26;;;;;;;41.17;24.90;;;;;;;21.23;58.63;102084.97;5078499;28;20030;-70
2022/10/31 09:53:02;;;;;;;;;;;;;;;21.89;56.99;102081.41;5085985;28;20514;-70
2022/10/31 09:55:37;;;;;;;54.67;25.23;;;;;;;22.09;56.51;102076.00;5089002;28;19916;-70
2022/10/31 09:58:03;;;;;;;61.92;26.23;;;;;;;22.20;55.97;102077.63;5077212;28;20029;-69
2022/10/31 10:00:29;;;;;;;47.78;27.10;;;;;;;21.86;56.25;102075.66;5069159;28;20036;-69
2022/10/31 10:03:12;;;;;;;45.80;25.73;;;;;;;21.94;56.08;102073.19;5068332;28;20033;-70
2022/10/31 10:06:13;;;;;;;38.80;24.35;;;;;;;22.31;54.89;102076.53;5067657;28;20052;-70
2022/10/31 10:08:39;;;;;;;47.85;23.40;;;;;;;22.81;53.74;102073.00;5025027;28;20034;-69
2022/10/31 10:11:25;;;;;;;40.67;22.88;;;;;;;22.85;53.37;102068.59;5028008;28;20136;-70
2022/10/31 10:14:13;;;;;;;50.10;22.55;;;;;;;22.39;53.70;102064.22;5026998;28;20041;-71
2022/10/31 10:16:47;;;;;;;34.33;20.10;;;;;;;22.27;55.13;102061.75;5032055;28;20041;-70
2022/10/31 10:19:27;;;;;;;30.77;18.88;;;;;;;22.35;54.36;102063.94;5025659;28;20041;-72
2022/10/31 10:22:16;;;;;;;31.45;20.00;;;;;;;22.25;54.78;102052.97;5023948;28;20118;-70
2022/10/31 10:25:02;;;;;;;28.67;17.98;;;;;;;22.15;54.60;102047.50;5020870;28;20507;-70
2022/10/31 10:27:37;;;;;;;30.38;18.75;;;;;;;21.98;55.29;102055.16;5024822;28;20048;-69
2022/10/31 10:30:12;;;;;;;30.67;17.85;;;;;;;22.17;55.25;102052.72;5021965;28;20497;-70
2022/10/31 10:32:54;;;;;;;29.77;18.10;;;;;;;22.71;53.92;102037.38;5022202;28;20053;-69
2022/10/31 10:35:32;;;;;;;38.25;18.77;;;;;;;22.13;55.11;102038.72;5023973;28;20021;-69
2022/10/31 10:38:49;;;;;;;31.20;17.40;;;;;;;21.72;56.00;102043.28;5016454;28;20044;-68
2022/10/31 10:41:18;;;;;;;30.63;18.02;;;;;;;22.22;55.12;102031.63;4921774;29;20075;-68
2022/10/31 10:43:44;;;;;;;35.92;18.90;;;;;;;22.42;54.31;102036.28;4924434;29;20095;-71
2022/10/31 10:49:43;;;;;;;33.45;18.40;;;;;;;22.52;53.89;102026.16;4923697;29;20055;-69
2022/10/31 10:52:43;;;;;;;28.38;17.33;;;;;;;22.64;53.19;102025.88;4920859;29;20058;-68
2022/10/31 10:55:22;;;;;;;34.03;17.65;;;;;;;22.88;53.20;102020.63;4924506;29;20035;-68
2022/10/31 10:58:10;;;;;;;32.22;17.40;;;;;;;22.85;53.25;102026.66;4926990;29;20039;-70
2022/10/31 11:00:49;;;;;;;31.23;17.98;;;;;;;22.64;53.93;102012.97;4924271;29;20036;-69
2022/10/31 11:03:16;;;;;;;28.08;16.65;;;;;;;22.62;54.30;102012.44;4923595;29;20040;-69
2022/10/31 11:05:54;;;;;;;28.77;16.50;;;;;;;22.72;53.56;102013.53;4908379;29;20094;-69
2022/10/31 11:08:25;;;;;;;28.23;16.02;;;;;;;23.12;52.45;102006.00;4924087;29;20038;-71
2022/10/31 11:11:07;;;;;;;33.17;17.40;;;;;;;23.04;52.98;101998.34;4925081;29;20039;-69
2022/10/31 11:13:34;;;;;;;33.53;16.45;;;;;;;23.24;52.97;101998.25;4910372;29;20035;-68
2022/10/31 11:16:04;;;;;;;30.30;16.65;;;;;;;23.17;53.05;101999.69;4930071;28;20090;-70
2022/10/31 11:18:37;;;;;;;31.40;16.42;;;;;;;23.50;52.25;102007.22;4995336;28;20125;-68
2022/10/31 11:21:04;;;;;;;26.67;15.02;;;;;;;23.15;52.83;102002.72;5004162;28;20069;-70
2022/10/31 11:23:30;;;;;;;27.73;16.63;;;;;;;23.67;51.16;101995.84;5004101;28;20122;-70
2022/10/31 11:25:56;;;;;;;27.33;17.13;;;;;;;23.08;52.56;101980.22;5005160;28;20042;-70